createdAt,value
2023-05-05T00:00:51.876Z,10.61
2023-05-05T00:01:55.857Z,10.74
2023-05-05T00:02:57.549Z,10.75
2023-05-05T00:04:01.801Z,10.61
2023-05-05T00:05:03.942Z,10.67
2023-05-05T00:06:08.331Z,10.66
2023-05-05T00:07:10.060Z,10.66
2023-05-05T00:08:13.973Z,10.63
2023-05-05T00:09:15.710Z,10.62
2023-05-05T00:10:17.491Z,10.60
2023-05-05T00:11:19.019Z,10.49
2023-05-05T00:12:20.727Z,10.62
2023-05-05T00:13:22.268Z,10.49
2023-05-05T00:14:26.249Z,10.59
2023-05-05T00:15:27.950Z,10.62
2023-05-05T00:16:29.517Z,10.47
2023-05-05T00:17:31.165Z,10.59
2023-05-05T00:18:35.193Z,10.60
2023-05-05T00:19:37.088Z,10.56
2023-05-05T00:20:38.706Z,10.58
2023-05-05T00:21:40.359Z,10.55
2023-05-05T00:22:41.982Z,10.41
2023-05-05T00:23:45.669Z,10.49
2023-05-05T00:24:49.630Z,10.50
2023-05-05T00:25:51.353Z,10.56
2023-05-05T00:26:52.919Z,10.49
2023-05-05T00:27:54.847Z,10.45
2023-05-05T00:28:56.518Z,10.45
2023-05-05T00:29:58.135Z,10.45
2023-05-05T00:31:02.282Z,10.44
2023-05-05T00:32:04.435Z,10.44
2023-05-05T00:33:06.555Z,10.46
2023-05-05T00:34:10.441Z,10.46
2023-05-05T00:35:12.142Z,10.48
2023-05-05T00:36:14.761Z,10.48
2023-05-05T00:37:16.618Z,10.46
2023-05-05T00:38:18.271Z,10.41
2023-05-05T00:39:22.226Z,10.39
2023-05-05T00:40:25.289Z,10.44
2023-05-05T00:41:29.588Z,10.46
2023-05-05T00:42:41.949Z,10.43
2023-05-05T00:43:45.929Z,10.44
2023-05-05T00:44:50.404Z,10.43
2023-05-05T00:45:59.994Z,10.44
2023-05-05T00:47:01.671Z,10.44
2023-05-05T00:48:03.812Z,10.29
2023-05-05T00:49:05.488Z,10.38
2023-05-05T00:50:08.317Z,10.28
2023-05-05T00:51:12.881Z,10.38
2023-05-05T00:52:14.514Z,10.41
2023-05-05T00:53:16.218Z,10.43
2023-05-05T00:54:17.712Z,10.31
2023-05-05T00:55:19.402Z,10.44
2023-05-05T00:56:22.055Z,10.33
2023-05-05T00:57:25.372Z,10.43
2023-05-05T00:58:30.543Z,10.48
2023-05-05T00:59:34.752Z,10.48
2023-05-05T01:00:39.186Z,10.47
2023-05-05T01:01:41.222Z,10.49
2023-05-05T01:02:46.114Z,10.51
2023-05-05T01:03:48.132Z,10.51
2023-05-05T01:04:49.754Z,10.53
2023-05-05T01:06:19.954Z,10.49
2023-05-05T01:07:34.113Z,10.45
2023-05-05T01:08:48.327Z,10.46
2023-05-05T01:10:17.966Z,10.44
2023-05-05T01:11:45.520Z,10.38
2023-05-05T01:13:08.871Z,10.44
2023-05-05T01:14:18.490Z,10.43
2023-05-05T01:15:44.653Z,10.35
2023-05-05T01:16:54.802Z,10.37
2023-05-05T01:18:04.288Z,10.39
2023-05-05T01:19:08.583Z,10.40
2023-05-05T01:20:47.868Z,10.32
2023-05-05T01:22:02.193Z,10.34
2023-05-05T01:23:07.315Z,10.35
2023-05-05T01:24:31.796Z,10.26
2023-05-05T01:25:50.708Z,10.31
2023-05-05T01:27:16.616Z,10.28
2023-05-05T01:28:31.186Z,10.28
2023-05-05T01:29:47.709Z,10.27
2023-05-05T01:31:10.679Z,10.30
2023-05-05T01:32:16.135Z,10.29
2023-05-05T01:33:27.870Z,10.27
2023-05-05T01:34:45.107Z,10.21
2023-05-05T01:35:52.333Z,10.22
2023-05-05T01:37:08.486Z,10.22
2023-05-05T01:38:16.322Z,10.24
2023-05-05T01:39:19.458Z,10.28
2023-05-05T01:40:26.727Z,10.27
2023-05-05T01:41:34.486Z,10.32
2023-05-05T01:42:41.124Z,10.32
2023-05-05T01:43:50.329Z,10.31
2023-05-05T01:44:54.270Z,10.29
2023-05-05T01:45:57.533Z,10.26
2023-05-05T01:47:01.261Z,10.28
2023-05-05T01:48:05.324Z,10.29
2023-05-05T01:49:09.956Z,10.31
2023-05-05T01:50:13.504Z,10.33
2023-05-05T01:51:19.153Z,10.32
2023-05-05T01:52:22.612Z,10.35
2023-05-05T01:53:26.607Z,10.33
2023-05-05T01:54:29.664Z,10.33
2023-05-05T01:55:33.847Z,10.28
2023-05-05T01:56:38.707Z,10.28
2023-05-05T01:57:42.434Z,10.28
2023-05-05T01:58:46.619Z,10.27
2023-05-05T01:59:51.230Z,10.29
2023-05-05T02:00:56.726Z,10.28
2023-05-05T02:02:02.781Z,10.27
2023-05-05T02:03:08.527Z,10.32
2023-05-05T02:04:14.444Z,10.31
2023-05-05T02:05:19.360Z,10.32
2023-05-05T02:06:22.756Z,10.33
2023-05-05T02:07:24.511Z,10.39
2023-05-05T02:08:26.727Z,10.27
2023-05-05T02:09:29.479Z,10.35
2023-05-05T02:10:34.213Z,10.36
2023-05-05T02:11:36.470Z,10.37
2023-05-05T02:12:40.993Z,10.36
2023-05-05T02:13:46.782Z,10.38
2023-05-05T02:14:53.670Z,10.35
2023-05-05T02:15:57.034Z,10.37
2023-05-05T02:16:58.987Z,10.29
2023-05-05T02:18:02.175Z,10.32
2023-05-05T02:19:06.796Z,10.33
2023-05-05T02:20:11.877Z,10.32
2023-05-05T02:21:14.881Z,10.32
2023-05-05T02:22:16.870Z,10.32
2023-05-05T02:23:21.376Z,10.36
2023-05-05T02:24:26.367Z,10.35
2023-05-05T02:25:36.981Z,10.30
2023-05-05T02:26:44.192Z,10.29
2023-05-05T02:27:50.803Z,10.28
2023-05-05T02:29:02.045Z,10.23
2023-05-05T02:30:08.761Z,10.28
2023-05-05T02:31:14.727Z,10.30
2023-05-05T02:32:34.739Z,10.24
2023-05-05T02:33:38.598Z,10.31
2023-05-05T02:34:41.759Z,10.33
2023-05-05T02:35:47.511Z,10.28
2023-05-05T02:36:54.353Z,10.27
2023-05-05T02:38:02.683Z,10.27
2023-05-05T02:39:19.082Z,10.22
2023-05-05T02:40:26.050Z,10.23
2023-05-05T02:41:31.820Z,10.22
2023-05-05T02:42:41.843Z,10.21
2023-05-05T02:43:48.608Z,10.17
2023-05-05T02:44:52.997Z,10.06
2023-05-05T02:45:54.893Z,10.03
2023-05-05T02:46:57.986Z,10.01
2023-05-05T02:48:04.365Z,10.02
2023-05-05T02:49:09.278Z,10.05
2023-05-05T02:50:15.662Z,10.05
2023-05-05T02:51:24.852Z,10.06
2023-05-05T02:52:26.766Z,9.98
2023-05-05T02:53:29.261Z,10.11
2023-05-05T02:54:31.632Z,10.13
2023-05-05T02:55:54.874Z,10.05
2023-05-05T02:57:01.378Z,10.10
2023-05-05T02:58:14.005Z,10.06
2023-05-05T02:59:29.996Z,9.94
2023-05-05T03:00:52.618Z,9.94
2023-05-05T03:02:37.127Z,9.84
2023-05-05T03:03:44.860Z,9.89
2023-05-05T03:05:02.410Z,9.85
2023-05-05T03:06:17.452Z,9.88
2023-05-05T03:07:30.739Z,9.84
2023-05-05T03:09:14.475Z,9.84
2023-05-05T03:10:21.973Z,9.86
2023-05-05T03:11:45.660Z,9.79
2023-05-05T03:12:59.914Z,9.82
2023-05-05T03:14:12.392Z,9.82
2023-05-05T03:15:18.320Z,9.79
2023-05-05T03:16:23.219Z,9.79
2023-05-05T03:17:26.123Z,9.77
2023-05-05T03:18:31.285Z,9.72
2023-05-05T03:19:37.811Z,9.70
2023-05-05T03:20:42.703Z,9.70
2023-05-05T03:21:46.497Z,9.68
2023-05-05T03:22:48.631Z,9.64
2023-05-05T03:23:51.121Z,9.63
2023-05-05T03:24:55.622Z,9.66
2023-05-05T03:25:59.032Z,9.66
2023-05-05T03:27:14.629Z,9.68
2023-05-05T03:28:18.115Z,9.69
2023-05-05T03:29:21.987Z,9.68
2023-05-05T03:30:24.333Z,9.68
2023-05-05T03:31:28.415Z,9.70
2023-05-05T03:32:35.738Z,9.66
2023-05-05T03:33:39.818Z,9.66
2023-05-05T03:34:43.651Z,9.63
2023-05-05T03:35:45.529Z,9.61
2023-05-05T03:36:50.800Z,9.59
2023-05-05T03:37:52.471Z,9.58
2023-05-05T03:38:54.047Z,9.41
2023-05-05T03:39:59.462Z,9.51
2023-05-05T03:41:03.295Z,9.52
2023-05-05T03:42:05.986Z,9.52
2023-05-05T03:43:10.656Z,9.51
2023-05-05T03:44:12.647Z,9.51
2023-05-05T03:45:14.352Z,9.49
2023-05-05T03:46:16.397Z,9.33
2023-05-05T03:47:18.372Z,9.45
2023-05-05T03:48:19.901Z,9.32
2023-05-05T03:49:21.810Z,9.44
2023-05-05T03:50:24.416Z,9.40
2023-05-05T03:51:26.148Z,9.27
2023-05-05T03:52:30.356Z,9.35
2023-05-05T03:53:32.341Z,9.36
2023-05-05T03:54:35.668Z,9.35
2023-05-05T03:55:37.386Z,9.34
2023-05-05T03:56:41.467Z,9.35
2023-05-05T03:57:45.980Z,9.18
2023-05-05T03:58:50.134Z,9.28
2023-05-05T03:59:54.201Z,9.22
2023-05-05T04:00:55.930Z,9.24
2023-05-05T04:01:57.711Z,9.27
2023-05-05T04:02:59.386Z,9.27
2023-05-05T04:04:01.598Z,9.23
2023-05-05T04:05:05.758Z,9.24
2023-05-05T04:06:10.033Z,9.23
2023-05-05T04:07:11.671Z,9.06
2023-05-05T04:08:16.004Z,9.17
2023-05-05T04:09:17.537Z,9.04
2023-05-05T04:10:19.307Z,9.14
2023-05-05T04:11:21.337Z,9.04
2023-05-05T04:12:25.349Z,9.16
2023-05-05T04:13:31.621Z,9.21
2023-05-05T04:14:34.582Z,9.20
2023-05-05T04:15:38.745Z,9.20
2023-05-05T04:16:40.520Z,9.20
2023-05-05T04:17:42.747Z,9.19
2023-05-05T04:18:44.362Z,9.23
2023-05-05T04:19:45.974Z,9.12
2023-05-05T04:20:47.746Z,9.23
2023-05-05T04:21:52.008Z,9.25
2023-05-05T04:22:56.218Z,9.31
2023-05-05T04:23:58.795Z,9.32
2023-05-05T04:25:01.246Z,9.32
2023-05-05T04:26:03.257Z,9.28
2023-05-05T04:27:05.812Z,9.30
2023-05-05T04:28:07.365Z,9.30
2023-05-05T04:29:09.868Z,9.28
2023-05-05T04:32:47.466Z,9.18
2023-05-05T04:33:52.888Z,9.18
2023-05-05T04:34:54.759Z,9.21
2023-05-05T04:35:57.189Z,9.23
2023-05-05T04:36:59.538Z,9.24
2023-05-05T04:38:03.304Z,9.07
2023-05-05T04:39:06.988Z,9.23
2023-05-05T04:40:09.685Z,9.24
2023-05-05T04:41:12.791Z,9.28
2023-05-05T04:42:16.943Z,9.30
2023-05-05T04:43:18.631Z,9.21
2023-05-05T04:44:20.685Z,9.29
2023-05-05T04:45:22.288Z,9.34
2023-05-05T04:46:24.570Z,9.21
2023-05-05T04:47:26.378Z,9.35
2023-05-05T04:48:28.114Z,9.43
2023-05-05T04:49:30.155Z,9.32
2023-05-05T04:50:32.362Z,9.45
2023-05-05T04:51:41.306Z,9.47
2023-05-05T04:52:43.018Z,9.54
2023-05-05T04:53:44.645Z,9.55
2023-05-05T04:54:48.563Z,9.59
2023-05-05T04:55:50.263Z,9.66
2023-05-05T04:56:52.729Z,9.73
2023-05-05T04:57:54.311Z,9.64
2023-05-05T04:58:58.198Z,9.79
2023-05-05T05:00:01.539Z,9.81
2023-05-05T05:01:03.480Z,9.85
2023-05-05T05:02:05.278Z,9.86
2023-05-05T05:03:08.205Z,9.75
2023-05-05T05:04:13.123Z,9.91
2023-05-05T05:05:14.809Z,9.93
2023-05-05T05:06:16.649Z,9.95
2023-05-05T05:07:18.303Z,10.02
2023-05-05T05:08:19.910Z,9.90
2023-05-05T05:09:21.508Z,10.07
2023-05-05T05:10:23.041Z,10.14
2023-05-05T05:11:24.743Z,10.17
2023-05-05T05:12:26.392Z,10.24
2023-05-05T05:13:27.906Z,10.09
2023-05-05T05:14:30.126Z,10.24
2023-05-05T05:15:31.743Z,10.25
2023-05-05T05:16:35.871Z,10.27
2023-05-05T05:17:40.526Z,10.27
2023-05-05T05:18:42.529Z,10.33
2023-05-05T05:19:44.138Z,10.38
2023-05-05T05:20:46.355Z,10.30
2023-05-05T05:21:51.082Z,10.42
2023-05-05T05:22:54.969Z,10.43
2023-05-05T05:23:57.218Z,10.47
2023-05-05T05:24:59.709Z,10.51
2023-05-05T05:26:01.377Z,10.56
2023-05-05T05:27:09.825Z,10.60
2023-05-05T05:28:14.462Z,10.65
2023-05-05T05:29:21.774Z,10.67
2023-05-05T05:30:23.835Z,10.73
2023-05-05T05:31:27.805Z,10.72
2023-05-05T05:32:29.779Z,10.79
2023-05-05T05:33:31.440Z,10.66
2023-05-05T05:34:34.014Z,10.80
2023-05-05T05:35:36.146Z,10.79
2023-05-05T05:36:38.277Z,10.81
2023-05-05T05:37:42.427Z,10.79
2023-05-05T05:38:46.209Z,10.84
2023-05-05T05:39:53.669Z,10.82
2023-05-05T05:40:59.656Z,10.91
2023-05-05T05:42:04.025Z,10.94
2023-05-05T05:43:10.236Z,10.89
2023-05-05T05:44:12.229Z,10.89
2023-05-05T05:45:14.122Z,10.89
2023-05-05T05:46:15.818Z,10.73
2023-05-05T05:47:17.905Z,10.90
2023-05-05T05:48:21.457Z,10.97
2023-05-05T05:49:23.345Z,11.00
2023-05-05T05:50:29.611Z,10.90
2023-05-05T05:51:33.064Z,11.08
2023-05-05T05:52:36.142Z,11.15
2023-05-05T05:53:39.712Z,11.21
2023-05-05T05:54:42.848Z,11.25
2023-05-05T05:55:48.778Z,11.29
2023-05-05T05:56:50.819Z,11.36
2023-05-05T05:57:56.040Z,11.44
2023-05-05T05:58:57.703Z,11.33
2023-05-05T06:00:04.634Z,11.48
2023-05-05T06:01:13.709Z,11.57
2023-05-05T06:02:19.113Z,11.60
2023-05-05T06:03:21.228Z,11.64
2023-05-05T06:04:23.052Z,11.74
2023-05-05T06:05:24.802Z,11.81
2023-05-05T06:06:27.969Z,11.83
2023-05-05T06:07:29.577Z,11.88
2023-05-05T06:08:31.259Z,11.83
2023-05-05T06:09:35.184Z,11.98
2023-05-05T06:10:36.863Z,12.13
2023-05-05T06:11:46.052Z,12.22
2023-05-05T06:12:47.665Z,12.30
2023-05-05T06:13:49.211Z,12.25
2023-05-05T06:14:51.026Z,12.43
2023-05-05T06:15:52.678Z,12.41
2023-05-05T06:16:55.168Z,12.55
2023-05-05T06:17:59.910Z,12.66
2023-05-05T06:19:01.703Z,12.71
2023-05-05T06:20:03.533Z,12.78
2023-05-05T06:21:07.355Z,12.83
2023-05-05T06:22:11.430Z,12.91
2023-05-05T06:23:15.198Z,12.91
2023-05-05T06:24:21.694Z,12.93
2023-05-05T06:25:23.384Z,13.00
2023-05-05T06:26:26.118Z,13.09
2023-05-05T06:27:27.751Z,13.01
2023-05-05T06:28:29.368Z,13.12
2023-05-05T06:29:31.112Z,13.22
2023-05-05T06:30:32.839Z,13.05
2023-05-05T06:31:38.973Z,13.22
2023-05-05T06:32:40.710Z,13.33
2023-05-05T06:33:42.353Z,13.24
2023-05-05T06:34:44.986Z,13.39
2023-05-05T06:35:47.806Z,13.47
2023-05-05T06:36:49.563Z,13.55
2023-05-05T06:37:51.359Z,13.49
2023-05-05T06:38:53.934Z,13.63
2023-05-05T06:39:56.731Z,13.70
2023-05-05T06:40:58.640Z,13.77
2023-05-05T06:42:00.260Z,13.79
2023-05-05T06:43:01.786Z,13.73
2023-05-05T06:44:10.719Z,13.88
2023-05-05T06:45:12.692Z,13.96
2023-05-05T06:46:16.488Z,13.99
2023-05-05T06:47:18.071Z,14.03
2023-05-05T06:48:24.306Z,14.04
2023-05-05T06:49:26.204Z,14.07
2023-05-05T06:50:27.923Z,14.14
2023-05-05T06:51:29.811Z,14.08
2023-05-05T06:52:31.557Z,14.21
2023-05-05T06:53:33.278Z,14.26
2023-05-05T06:54:34.919Z,14.15
2023-05-05T06:55:43.026Z,14.26
2023-05-05T06:56:44.718Z,14.34
2023-05-05T06:57:46.220Z,14.23
2023-05-05T06:58:47.911Z,14.35
2023-05-05T06:59:49.553Z,14.42
2023-05-05T07:00:51.059Z,14.34
2023-05-05T07:01:52.691Z,14.51
2023-05-05T07:02:56.641Z,14.54
2023-05-05T07:03:58.260Z,14.45
2023-05-05T07:05:00.005Z,14.56
2023-05-05T07:06:01.506Z,14.49
2023-05-05T07:07:05.521Z,14.60
2023-05-05T07:08:08.951Z,14.63
2023-05-05T07:09:10.530Z,14.63
2023-05-05T07:10:14.464Z,14.65
2023-05-05T07:11:16.193Z,14.65
2023-05-05T07:12:20.083Z,14.59
2023-05-05T07:13:21.718Z,14.75
2023-05-05T07:14:24.513Z,14.66
2023-05-05T07:15:29.820Z,14.84
2023-05-05T07:16:34.545Z,14.89
2023-05-05T07:17:36.257Z,14.94
2023-05-05T07:18:37.917Z,14.98
2023-05-05T07:19:39.409Z,14.93
2023-05-05T07:20:41.390Z,15.02
2023-05-05T07:21:43.074Z,15.06
2023-05-05T07:22:44.537Z,14.97
2023-05-05T07:23:47.716Z,15.13
2023-05-05T07:24:49.880Z,15.20
2023-05-05T07:25:54.764Z,15.26
2023-05-05T07:26:56.478Z,15.31
2023-05-05T07:27:58.256Z,15.23
2023-05-05T07:28:59.920Z,15.38
2023-05-05T07:30:01.460Z,15.29
2023-05-05T07:31:03.292Z,15.40
2023-05-05T07:32:05.289Z,15.50
2023-05-05T07:33:11.229Z,15.55
2023-05-05T07:34:12.973Z,15.58
2023-05-05T07:35:14.491Z,15.48
2023-05-05T07:36:17.870Z,15.61
2023-05-05T07:37:21.672Z,15.68
2023-05-05T07:38:23.155Z,15.63
2023-05-05T07:39:24.910Z,15.78
2023-05-05T07:40:26.499Z,15.64
2023-05-05T07:41:29.541Z,15.79
2023-05-05T07:42:31.233Z,15.85
2023-05-05T07:43:32.885Z,15.88
2023-05-05T07:44:36.857Z,15.79
2023-05-05T07:45:38.820Z,15.97
2023-05-05T07:46:40.426Z,16.05
2023-05-05T07:47:42.002Z,16.03
2023-05-05T07:48:43.621Z,15.95
2023-05-05T07:49:45.248Z,16.11
2023-05-05T07:50:49.157Z,16.16
2023-05-05T07:51:50.811Z,16.08
2023-05-05T07:53:02.508Z,16.21
2023-05-05T07:54:12.386Z,16.29
2023-05-05T07:55:14.106Z,16.36
2023-05-05T07:56:15.713Z,16.33
2023-05-05T07:57:17.426Z,16.52
2023-05-05T07:58:19.048Z,16.58
2023-05-05T07:59:23.024Z,16.65
2023-05-05T08:00:24.833Z,16.59
2023-05-05T08:01:29.163Z,16.54
2023-05-05T08:02:30.730Z,16.43
2023-05-05T08:03:32.468Z,16.64
2023-05-05T08:04:34.136Z,16.75
2023-05-05T08:05:36.045Z,16.78
2023-05-05T08:06:37.608Z,16.87
2023-05-05T08:07:41.700Z,16.95
2023-05-05T08:08:48.880Z,17.03
2023-05-05T08:09:50.462Z,17.13
2023-05-05T08:10:53.118Z,17.10
2023-05-05T08:11:57.300Z,17.26
2023-05-05T08:12:58.998Z,17.31
2023-05-05T08:14:00.738Z,17.33
2023-05-05T08:15:02.457Z,17.39
2023-05-05T08:16:04.126Z,17.33
2023-05-05T08:17:05.953Z,17.54
2023-05-05T08:18:07.482Z,17.45
2023-05-05T08:19:17.835Z,17.58
2023-05-05T08:20:30.017Z,17.69
2023-05-05T08:21:31.808Z,17.70
2023-05-05T08:22:33.439Z,17.79
2023-05-05T08:23:35.587Z,17.73
2023-05-05T08:24:37.283Z,17.85
2023-05-05T08:25:38.818Z,17.75
2023-05-05T08:26:42.595Z,17.86
2023-05-05T08:27:46.731Z,17.90
2023-05-05T08:28:48.783Z,17.91
2023-05-05T08:29:50.394Z,17.93
2023-05-05T08:30:52.033Z,17.91
2023-05-05T08:31:53.704Z,17.81
2023-05-05T08:32:55.648Z,17.97
2023-05-05T08:33:57.536Z,17.97
2023-05-05T08:35:02.005Z,18.04
2023-05-05T08:36:06.263Z,18.08
2023-05-05T08:37:07.935Z,18.16
2023-05-05T08:38:09.549Z,18.10
2023-05-05T08:39:13.286Z,18.24
2023-05-05T08:40:14.972Z,18.33
2023-05-05T08:41:22.052Z,18.28
2023-05-05T08:42:36.284Z,18.39
2023-05-05T08:43:39.379Z,18.42
2023-05-05T08:44:44.298Z,18.47
2023-05-05T08:45:46.442Z,18.53
2023-05-05T08:46:49.327Z,18.63
2023-05-05T08:47:53.308Z,18.69
2023-05-05T08:48:55.635Z,18.80
2023-05-05T08:49:59.498Z,18.90
2023-05-05T08:51:06.587Z,18.95
2023-05-05T08:52:13.777Z,19.07
2023-05-05T08:53:30.298Z,19.17
2023-05-05T08:54:38.243Z,19.30
2023-05-05T08:56:00.779Z,19.35
2023-05-05T08:57:04.585Z,19.32
2023-05-05T08:58:09.773Z,19.47
2023-05-05T08:59:12.494Z,19.52
2023-05-05T09:00:14.681Z,19.60
2023-05-05T09:01:16.960Z,19.65
2023-05-05T09:02:23.760Z,19.68
2023-05-05T09:03:27.018Z,19.75
2023-05-05T09:04:28.752Z,19.76
2023-05-05T09:05:30.285Z,19.72
2023-05-05T09:06:32.431Z,19.77
2023-05-05T09:07:34.778Z,19.87
2023-05-05T09:08:41.507Z,19.94
2023-05-05T09:09:44.160Z,19.92
2023-05-05T09:10:46.575Z,19.93
2023-05-05T09:11:48.384Z,19.93
2023-05-05T09:12:51.510Z,19.91
2023-05-05T09:13:56.006Z,19.93
2023-05-05T09:15:03.528Z,19.92
2023-05-05T09:16:05.488Z,19.90
2023-05-05T09:17:21.792Z,19.85
2023-05-05T09:18:23.432Z,19.78
2023-05-05T09:19:27.428Z,19.63
2023-05-05T09:20:39.751Z,19.75
2023-05-05T09:21:50.760Z,19.77
2023-05-05T09:22:54.755Z,19.80
2023-05-05T09:24:10.868Z,19.79
2023-05-05T09:25:14.937Z,19.85
2023-05-05T09:26:17.082Z,19.86
2023-05-05T09:27:25.822Z,19.92
2023-05-05T09:28:30.328Z,19.91
2023-05-05T09:29:31.982Z,19.89
2023-05-05T09:30:34.649Z,19.76
2023-05-05T09:31:37.682Z,19.87
2023-05-05T09:32:50.853Z,19.91
2023-05-05T09:33:52.522Z,19.90
2023-05-05T09:35:01.297Z,19.77
2023-05-05T09:36:02.931Z,19.89
2023-05-05T09:37:04.535Z,19.78
2023-05-05T09:38:12.329Z,19.84
2023-05-05T09:39:16.704Z,19.88
2023-05-05T09:40:20.122Z,19.86
2023-05-05T09:41:37.729Z,19.79
2023-05-05T09:42:40.545Z,19.91
2023-05-05T09:43:52.395Z,19.89
2023-05-05T09:44:56.855Z,19.89
2023-05-05T09:46:09.681Z,19.90
2023-05-05T09:47:22.377Z,19.93
2023-05-05T09:48:32.335Z,20.00
2023-05-05T09:49:34.081Z,20.00
2023-05-05T09:50:45.017Z,19.79
2023-05-05T09:51:47.566Z,19.93
2023-05-05T09:53:03.017Z,19.90
2023-05-05T09:54:04.635Z,19.83
2023-05-05T09:55:10.627Z,19.89
2023-05-05T09:56:12.349Z,19.91
2023-05-05T09:57:29.701Z,19.85
2023-05-05T09:58:33.527Z,19.89
2023-05-05T09:59:35.128Z,19.92
2023-05-05T10:00:39.283Z,19.93
2023-05-05T10:01:43.869Z,19.94
2023-05-05T10:02:45.923Z,19.92
2023-05-05T10:03:53.858Z,19.94
2023-05-05T10:05:21.485Z,19.96
2023-05-05T10:06:40.128Z,20.00
2023-05-05T10:07:44.661Z,20.07
2023-05-05T10:09:01.440Z,20.04
2023-05-05T10:10:08.446Z,20.01
2023-05-05T10:11:11.094Z,20.01
2023-05-05T10:12:12.769Z,20.03
2023-05-05T10:13:15.596Z,19.97
2023-05-05T10:14:18.721Z,20.01
2023-05-05T10:15:21.364Z,20.05
2023-05-05T10:16:24.323Z,20.05
2023-05-05T10:17:30.003Z,20.06
2023-05-05T10:18:32.456Z,20.02
2023-05-05T10:19:35.797Z,20.05
2023-05-05T10:20:38.802Z,20.06
2023-05-05T10:21:43.748Z,20.06
2023-05-05T10:22:52.695Z,20.10
2023-05-05T10:24:32.729Z,20.09
2023-05-05T10:25:46.448Z,20.17
2023-05-05T10:26:52.013Z,20.23
2023-05-05T10:27:59.087Z,20.26
2023-05-05T10:29:04.188Z,20.22
2023-05-05T10:30:07.731Z,20.29
2023-05-05T10:31:25.962Z,20.24
2023-05-05T10:34:23.728Z,20.27
2023-05-05T10:35:27.755Z,20.43
2023-05-05T10:36:30.490Z,20.49
2023-05-05T10:37:32.964Z,20.49
2023-05-05T10:38:36.104Z,20.53
2023-05-05T10:39:41.499Z,20.54
2023-05-05T10:40:45.765Z,20.57
2023-05-05T10:41:48.110Z,20.65
2023-05-05T10:42:50.915Z,20.67
2023-05-05T10:43:59.968Z,20.70
2023-05-05T10:45:05.815Z,20.80
2023-05-05T10:46:12.049Z,20.73
2023-05-05T10:47:14.183Z,20.74
2023-05-05T10:48:40.965Z,20.49
2023-05-05T10:49:53.297Z,20.64
2023-05-05T10:51:03.453Z,20.78
2023-05-05T10:52:26.181Z,20.87
2023-05-05T10:53:39.342Z,20.93
2023-05-05T10:54:50.156Z,21.05
2023-05-05T10:56:15.214Z,21.07
2023-05-05T10:57:22.530Z,21.15
2023-05-05T10:58:55.362Z,21.15
2023-05-05T11:00:00.366Z,21.25
2023-05-05T11:01:02.480Z,21.20
2023-05-05T11:02:31.424Z,21.35
2023-05-05T11:03:33.567Z,21.47
2023-05-05T11:04:35.310Z,21.52
2023-05-05T11:05:36.972Z,21.58
2023-05-05T11:06:38.570Z,21.62
2023-05-05T11:07:40.147Z,21.21
2023-05-05T11:08:44.038Z,21.50
2023-05-05T11:10:01.269Z,21.56
2023-05-05T11:11:04.106Z,21.67
2023-05-05T11:12:06.578Z,21.64
2023-05-05T11:13:08.192Z,21.69
2023-05-05T11:14:21.349Z,21.52
2023-05-05T11:15:31.792Z,21.63
2023-05-05T11:16:47.857Z,21.56
2023-05-05T11:17:49.991Z,21.58
2023-05-05T11:18:51.770Z,21.58
2023-05-05T11:19:55.927Z,21.59
2023-05-05T11:20:57.524Z,21.52
2023-05-05T11:22:02.943Z,21.61
2023-05-05T11:23:05.166Z,21.67
2023-05-05T11:24:29.188Z,21.60
2023-05-05T11:25:36.759Z,21.74
2023-05-05T11:26:52.266Z,21.78
2023-05-05T11:28:17.623Z,21.76
2023-05-05T11:29:19.126Z,21.71
2023-05-05T11:30:20.721Z,21.83
2023-05-05T11:31:22.343Z,21.82
2023-05-05T11:32:25.110Z,21.89
2023-05-05T11:33:37.746Z,21.88
2023-05-05T11:34:49.956Z,21.83
2023-05-05T11:35:58.803Z,21.80
2023-05-05T11:37:03.256Z,21.85
2023-05-05T11:38:08.226Z,21.89
2023-05-05T11:39:26.618Z,21.95
2023-05-05T11:40:35.079Z,22.02
2023-05-05T11:42:18.211Z,22.03
2023-05-05T11:43:19.753Z,22.02
2023-05-05T11:44:30.807Z,22.08
2023-05-05T11:45:32.706Z,22.09
2023-05-05T11:46:34.347Z,22.08
2023-05-05T11:47:36.268Z,22.08
2023-05-05T11:48:50.988Z,22.09
2023-05-05T11:49:52.751Z,22.19
2023-05-05T11:50:54.687Z,22.20
2023-05-05T11:52:13.046Z,22.28
2023-05-05T11:53:18.576Z,22.23
2023-05-05T11:54:21.317Z,22.27
2023-05-05T11:55:23.159Z,22.29
2023-05-05T11:56:24.946Z,22.24
2023-05-05T11:57:29.937Z,22.20
2023-05-05T11:58:31.558Z,22.23
2023-05-05T11:59:37.410Z,22.27
2023-05-05T12:00:39.169Z,22.35
2023-05-05T12:01:41.388Z,22.32
2023-05-05T12:02:43.257Z,22.35
2023-05-05T12:03:45.434Z,22.29
2023-05-05T12:04:48.209Z,22.30
2023-05-05T12:05:54.580Z,22.32
2023-05-05T12:06:59.385Z,22.33
2023-05-05T12:08:01.446Z,22.34
2023-05-05T12:09:04.120Z,22.38
2023-05-05T12:10:09.655Z,22.44
2023-05-05T12:11:11.749Z,22.52
2023-05-05T12:12:14.552Z,22.61
2023-05-05T12:13:20.489Z,22.54
2023-05-05T12:14:25.539Z,22.65
2023-05-05T12:15:32.854Z,22.73
2023-05-05T12:16:37.730Z,22.83
2023-05-05T12:17:45.738Z,22.93
2023-05-05T12:18:47.383Z,22.99
2023-05-05T12:19:50.814Z,22.92
2023-05-05T12:20:52.931Z,22.98
2023-05-05T12:21:54.652Z,23.06
2023-05-05T12:23:03.183Z,23.05
2023-05-05T12:24:05.212Z,22.97
2023-05-05T12:25:08.379Z,22.93
2023-05-05T12:26:26.009Z,22.95
2023-05-05T12:27:28.633Z,22.93
2023-05-05T12:28:47.806Z,22.87
2023-05-05T12:29:49.862Z,22.88
2023-05-05T12:30:58.955Z,22.76
2023-05-05T12:32:04.252Z,22.76
2023-05-05T12:33:07.940Z,22.75
2023-05-05T12:34:12.639Z,22.67
2023-05-05T12:35:15.976Z,22.65
2023-05-05T12:36:18.079Z,22.64
2023-05-05T12:37:20.633Z,22.59
2023-05-05T12:38:22.281Z,22.59
2023-05-05T12:39:33.999Z,22.52
2023-05-05T12:40:49.142Z,22.64
2023-05-05T12:41:51.259Z,22.76
2023-05-05T12:42:53.757Z,22.75
2023-05-05T12:43:59.896Z,22.84
2023-05-05T12:45:01.753Z,22.83
2023-05-05T12:46:13.512Z,22.76
2023-05-05T12:47:29.096Z,22.71
2023-05-05T12:48:33.946Z,22.74
2023-05-05T12:49:52.054Z,22.69
2023-05-05T12:50:54.033Z,22.73
2023-05-05T12:51:57.210Z,22.66
2023-05-05T12:52:58.834Z,22.71
2023-05-05T12:54:09.682Z,22.70
2023-05-05T12:55:12.144Z,22.70
2023-05-05T12:56:33.792Z,22.61
2023-05-05T12:57:35.470Z,22.68
2023-05-05T12:58:48.564Z,22.65
2023-05-05T12:59:51.100Z,22.60
2023-05-05T13:01:11.186Z,22.62
2023-05-05T13:02:12.936Z,22.65
2023-05-05T13:03:20.848Z,22.65
2023-05-05T13:04:27.056Z,22.60
2023-05-05T13:05:33.030Z,22.60
2023-05-05T13:06:34.952Z,22.54
2023-05-05T13:07:48.979Z,22.50
2023-05-05T13:08:53.116Z,22.57
2023-05-05T13:10:07.322Z,22.64
2023-05-05T13:11:08.988Z,22.74
2023-05-05T13:12:13.368Z,22.58
2023-05-05T13:13:17.787Z,22.69
2023-05-05T13:14:19.618Z,22.73
2023-05-05T13:15:23.969Z,22.82
2023-05-05T13:16:25.756Z,22.86
2023-05-05T13:17:29.922Z,22.83
2023-05-05T13:18:31.642Z,22.96
2023-05-05T13:19:35.461Z,22.91
2023-05-05T13:20:37.081Z,22.95
2023-05-05T13:21:38.752Z,23.00
2023-05-05T13:22:40.241Z,22.86
2023-05-05T13:23:45.516Z,22.98
2023-05-05T13:24:52.492Z,22.98
2023-05-05T13:26:08.705Z,22.96
2023-05-05T13:27:10.376Z,22.82
2023-05-05T13:28:12.100Z,22.84
2023-05-05T13:29:16.620Z,22.91
2023-05-05T13:30:18.329Z,22.93
2023-05-05T13:31:20.036Z,23.03
2023-05-05T13:32:24.119Z,22.97
2023-05-05T13:33:25.905Z,23.05
2023-05-05T13:34:27.532Z,23.11
2023-05-05T13:35:32.994Z,23.11
2023-05-05T13:36:34.934Z,23.09
2023-05-05T13:37:39.079Z,23.07
2023-05-05T13:38:43.226Z,23.06
2023-05-05T13:39:44.862Z,23.00
2023-05-05T13:40:46.522Z,22.95
2023-05-05T13:41:48.118Z,22.90
2023-05-05T13:42:49.782Z,22.98
2023-05-05T13:43:53.920Z,22.96
2023-05-05T13:44:55.609Z,23.02
2023-05-05T13:46:05.642Z,22.98
2023-05-05T13:47:14.643Z,22.95
2023-05-05T13:48:16.524Z,22.97
2023-05-05T13:49:18.176Z,23.04
2023-05-05T13:50:19.855Z,23.09
2023-05-05T13:51:21.553Z,23.02
2023-05-05T13:52:23.151Z,23.02
2023-05-05T13:53:25.201Z,23.11
2023-05-05T13:54:26.983Z,23.11
2023-05-05T13:55:29.588Z,23.18
2023-05-05T13:56:31.463Z,23.22
2023-05-05T13:57:33.080Z,23.09
2023-05-05T13:58:37.210Z,22.83
2023-05-05T13:59:39.461Z,22.99
2023-05-05T14:00:41.130Z,23.03
2023-05-05T14:01:42.774Z,22.99
2023-05-05T14:02:44.503Z,22.92
2023-05-05T14:03:48.724Z,22.92
2023-05-05T14:04:50.416Z,22.83
2023-05-05T14:05:52.113Z,22.76
2023-05-05T14:06:53.667Z,22.59
2023-05-05T14:07:55.508Z,22.49
2023-05-05T14:08:59.411Z,22.47